sensor_id;sensor_type;location;lat;lon;timestamp;pressure;altitude;pressure_sealevel;temperature;humidity
22930;BME280;11630;42.660;23.292;2024-02-14T00:01:40;68282.63;;;6.75;100.00
22930;BME280;11630;42.660;23.292;2024-02-14T00:04:11;68286.42;;;6.76;100.00
22930;BME280;11630;42.660;23.292;2024-02-14T00:06:42;68289.11;;;6.76;100.00
22930;BME280;11630;42.660;23.292;2024-02-14T00:09:12;68290.77;;;6.83;100.00
22930;BME280;11630;42.660;23.292;2024-02-14T00:11:45;68281.83;;;6.73;100.00
22930;BME280;11630;42.660;23.292;2024-02-14T00:14:17;68302.41;;;6.89;100.00
22930;BME280;11630;42.660;23.292;2024-02-14T00:16:50;68315.14;;;7.00;100.00
22930;BME280;11630;42.660;23.292;2024-02-14T00:19:22;68308.92;;;6.98;100.00
22930;BME280;11630;42.660;23.292;2024-02-14T00:21:55;68310.00;;;6.96;100.00
22930;BME280;11630;42.660;23.292;2024-02-14T00:24:26;68308.09;;;6.93;100.00
22930;BME280;11630;42.660;23.292;2024-02-14T00:26:57;68298.89;;;6.90;100.00
22930;BME280;11630;42.660;23.292;2024-02-14T00:29:28;68312.69;;;6.94;100.00
22930;BME280;11630;42.660;23.292;2024-02-14T00:31:58;68318.41;;;7.03;100.00
22930;BME280;11630;42.660;23.292;2024-02-14T00:34:30;68297.83;;;6.89;100.00
22930;BME280;11630;42.660;23.292;2024-02-14T00:37:00;68304.07;;;6.96;100.00
22930;BME280;11630;42.660;23.292;2024-02-14T00:39:30;68305.94;;;6.91;100.00
22930;BME280;11630;42.660;23.292;2024-02-14T00:42:01;68294.31;;;6.89;100.00
22930;BME280;11630;42.660;23.292;2024-02-14T00:44:33;68295.35;;;6.83;100.00
22930;BME280;11630;42.660;23.292;2024-02-14T00:47:03;68291.85;;;6.81;100.00
22930;BME280;11630;42.660;23.292;2024-02-14T00:49:37;68278.84;;;6.72;100.00
22930;BME280;11630;42.660;23.292;2024-02-14T00:52:07;68274.50;;;6.65;100.00
22930;BME280;11630;42.660;23.292;2024-02-14T00:54:38;68287.50;;;6.77;100.00
22930;BME280;11630;42.660;23.292;2024-02-14T00:57:09;68288.06;;;6.78;100.00
22930;BME280;11630;42.660;23.292;2024-02-14T00:59:40;68285.06;;;6.76;100.00
22930;BME280;11630;42.660;23.292;2024-02-14T01:02:11;68287.78;;;6.79;100.00
22930;BME280;11630;42.660;23.292;2024-02-14T01:04:42;68290.72;;;6.75;100.00
22930;BME280;11630;42.660;23.292;2024-02-14T01:07:13;68290.46;;;6.76;100.00
22930;BME280;11630;42.660;23.292;2024-02-14T01:09:44;68290.22;;;6.82;100.00
22930;BME280;11630;42.660;23.292;2024-02-14T01:12:15;68307.02;;;6.92;100.00
22930;BME280;11630;42.660;23.292;2024-02-14T01:14:45;68296.70;;;6.83;100.00
22930;BME280;11630;42.660;23.292;2024-02-14T01:17:16;68292.90;;;6.77;100.00
22930;BME280;11630;42.660;23.292;2024-02-14T01:19:47;68295.62;;;6.82;100.00
22930;BME280;11630;42.660;23.292;2024-02-14T01:22:18;68308.34;;;6.90;100.00
22930;BME280;11630;42.660;23.292;2024-02-14T01:24:48;68313.77;;;6.95;100.00
22930;BME280;11630;42.660;23.292;2024-02-14T01:27:18;68289.69;;;6.82;100.00
22930;BME280;11630;42.660;23.292;2024-02-14T01:29:49;68291.57;;;6.82;100.00
22930;BME280;11630;42.660;23.292;2024-02-14T01:32:20;68292.91;;;6.80;100.00
22930;BME280;11630;42.660;23.292;2024-02-14T01:34:50;68298.63;;;6.88;100.00
22930;BME280;11630;42.660;23.292;2024-02-14T01:37:21;68287.25;;;6.81;100.00
22930;BME280;11630;42.660;23.292;2024-02-14T01:39:54;68277.77;;;6.71;100.00
22930;BME280;11630;42.660;23.292;2024-02-14T01:42:25;68271.00;;;6.68;100.00
22930;BME280;11630;42.660;23.292;2024-02-14T01:44:56;68283.17;;;6.73;100.00
22930;BME280;11630;42.660;23.292;2024-02-14T01:47:27;68278.03;;;6.70;100.00
22930;BME280;11630;42.660;23.292;2024-02-14T01:49:58;68283.44;;;6.72;100.00
22930;BME280;11630;42.660;23.292;2024-02-14T01:52:30;68291.57;;;6.82;100.00
22930;BME280;11630;42.660;23.292;2024-02-14T01:55:00;68301.05;;;6.87;100.00
22930;BME280;11630;42.660;23.292;2024-02-14T01:57:32;68294.82;;;6.83;100.00
22930;BME280;11630;42.660;23.292;2024-02-14T02:00:04;68286.42;;;6.76;100.00
22930;BME280;11630;42.660;23.292;2024-02-14T02:02:36;68283.98;;;6.75;100.00
22930;BME280;11630;42.660;23.292;2024-02-14T02:05:07;68276.67;;;6.67;100.00
22930;BME280;11630;42.660;23.292;2024-02-14T02:07:38;68279.13;;;6.73;100.00
22930;BME280;11630;42.660;23.292;2024-02-14T02:10:09;68284.79;;;6.72;100.00
22930;BME280;11630;42.660;23.292;2024-02-14T02:12:40;68269.36;;;6.62;100.00
22930;BME280;11630;42.660;23.292;2024-02-14T02:15:09;68276.67;;;6.67;100.00
22930;BME280;11630;42.660;23.292;2024-02-14T02:17:41;68275.59;;;6.66;100.00
22930;BME280;11630;42.660;23.292;2024-02-14T02:20:12;68267.45;;;6.61;100.00
22930;BME280;11630;42.660;23.292;2024-02-14T02:22:46;68276.67;;;6.67;100.00
22930;BME280;11630;42.660;23.292;2024-02-14T02:25:16;68272.85;;;6.61;100.00
22930;BME280;11630;42.660;23.292;2024-02-14T02:27:47;68275.34;;;6.70;100.00
22930;BME280;11630;42.660;23.292;2024-02-14T02:30:17;68273.98;;;6.67;100.00
22930;BME280;11630;42.660;23.292;2024-02-14T02:32:48;68260.70;;;6.56;100.00
22930;BME280;11630;42.660;23.292;2024-02-14T02:35:18;68270.98;;;6.63;100.00
22930;BME280;11630;42.660;23.292;2024-02-14T02:37:49;68267.45;;;6.61;100.00
22930;BME280;11630;42.660;23.292;2024-02-14T02:40:20;68280.19;;;6.72;100.00
22930;BME280;11630;42.660;23.292;2024-02-14T02:42:56;68282.63;;;6.73;100.00
22930;BME280;11630;42.660;23.292;2024-02-14T02:45:26;68271.50;;;6.61;100.00
22930;BME280;11630;42.660;23.292;2024-02-14T02:47:56;68282.61;;;6.70;100.00
22930;BME280;11630;42.660;23.292;2024-02-14T02:50:27;68271.24;;;6.62;100.00
22930;BME280;11630;42.660;23.292;2024-02-14T02:53:01;68263.39;;;6.56;100.00
22930;BME280;11630;42.660;23.292;2024-02-14T02:55:32;68263.95;;;6.59;100.00
22930;BME280;11630;42.660;23.292;2024-02-14T02:58:03;68272.85;;;6.61;100.00
22930;BME280;11630;42.660;23.292;2024-02-14T03:00:34;68267.72;;;6.60;100.00
22930;BME280;11630;42.660;23.292;2024-02-14T03:03:07;68282.08;;;6.70;100.00
22930;BME280;11630;42.660;23.292;2024-02-14T03:05:34;68264.17;;;6.53;100.00
22930;BME280;11630;42.660;23.292;2024-02-14T03:08:05;68269.35;;;6.59;100.00
22930;BME280;11630;42.660;23.292;2024-02-14T03:10:39;68265.56;;;6.58;100.00
22930;BME280;11630;42.660;23.292;2024-02-14T03:13:10;68266.66;;;6.59;100.00
22930;BME280;11630;42.660;23.292;2024-02-14T03:15:41;68266.63;;;6.57;100.00
22930;BME280;11630;42.660;23.292;2024-02-14T03:18:12;68267.44;;;6.56;100.00
22930;BME280;11630;42.660;23.292;2024-02-14T03:20:43;68270.41;;;6.60;100.00
22930;BME280;11630;42.660;23.292;2024-02-14T03:23:13;68263.41;;;6.59;100.00
22930;BME280;11630;42.660;23.292;2024-02-14T03:25:44;68265.30;;;6.59;100.00
22930;BME280;11630;42.660;23.292;2024-02-14T03:28:15;68276.91;;;6.64;100.00
22930;BME280;11630;42.660;23.292;2024-02-14T03:30:46;68268.78;;;6.56;100.00
22930;BME280;11630;42.660;23.292;2024-02-14T03:33:17;68260.95;;;6.53;100.00
22930;BME280;11630;42.660;23.292;2024-02-14T03:35:46;68255.25;;;6.49;100.00
22930;BME280;11630;42.660;23.292;2024-02-14T03:38:28;68247.14;;;6.44;100.00
22930;BME280;11630;42.660;23.292;2024-02-14T03:40:58;68267.45;;;6.59;100.00
22930;BME280;11630;42.660;23.292;2024-02-14T03:43:29;68260.95;;;6.53;100.00
22930;BME280;11630;42.660;23.292;2024-02-14T03:46:01;68256.38;;;6.52;100.00
22930;BME280;11630;42.660;23.292;2024-02-14T03:48:35;68264.22;;;6.58;100.00
22930;BME280;11630;42.660;23.292;2024-02-14T03:51:06;68263.39;;;6.56;100.00
22930;BME280;11630;42.660;23.292;2024-02-14T03:53:39;68262.30;;;6.55;100.00
22930;BME280;11630;42.660;23.292;2024-02-14T03:56:09;68285.61;;;6.74;100.00
22930;BME280;11630;42.660;23.292;2024-02-14T03:58:39;68272.86;;;6.64;100.00
22930;BME280;11630;42.660;23.292;2024-02-14T04:01:10;68268.27;;;6.61;100.00
22930;BME280;11630;42.660;23.292;2024-02-14T04:03:41;68260.42;;;6.55;100.00
22930;BME280;11630;42.660;23.292;2024-02-14T04:06:12;68262.30;;;6.55;100.00
22930;BME280;11630;42.660;23.292;2024-02-14T04:08:43;68254.99;;;6.50;100.00
22930;BME280;11630;42.660;23.292;2024-02-14T04:11:14;68260.97;;;6.58;100.00
22930;BME280;11630;42.660;23.292;2024-02-14T04:13:44;68256.08;;;6.51;100.00
22930;BME280;11630;42.660;23.292;2024-02-14T04:16:18;68261.77;;;6.55;100.00
22930;BME280;11630;42.660;23.292;2024-02-14T04:18:46;68263.66;;;6.58;100.00
22930;BME280;11630;42.660;23.292;2024-02-14T04:21:17;68258.52;;;6.52;100.00
22930;BME280;11630;42.660;23.292;2024-02-14T04:23:48;68253.38;;;6.48;100.00
22930;BME280;11630;42.660;23.292;2024-02-14T04:26:20;68249.57;;;6.42;100.00
22930;BME280;11630;42.660;23.292;2024-02-14T04:28:52;68250.66;;;6.43;100.00
22930;BME280;11630;42.660;23.292;2024-02-14T04:31:22;68265.81;;;6.52;100.00
22930;BME280;11630;42.660;23.292;2024-02-14T04:33:52;68244.70;;;6.40;100.00
22930;BME280;11630;42.660;23.292;2024-02-14T04:36:23;68257.72;;;6.52;100.00
22930;BME280;11630;42.660;23.292;2024-02-14T04:38:54;68263.66;;;6.55;100.00
22930;BME280;11630;42.660;23.292;2024-02-14T04:41:24;68252.55;;;6.46;100.00
22930;BME280;11630;42.660;23.292;2024-02-14T04:43:55;68252.00;;;6.43;100.00
22930;BME280;11630;42.660;23.292;2024-02-14T04:46:25;68247.97;;;6.46;100.00
22930;BME280;11630;42.660;23.292;2024-02-14T04:48:56;68245.22;;;6.38;100.00
22930;BME280;11630;42.660;23.292;2024-02-14T04:51:28;68259.88;;;6.54;100.00
22930;BME280;11630;42.660;23.292;2024-02-14T04:53:58;68250.92;;;6.45;100.00
22930;BME280;11630;42.660;23.292;2024-02-14T04:56:29;68258.52;;;6.52;100.00
22930;BME280;11630;42.660;23.292;2024-02-14T04:59:00;68261.77;;;6.55;100.00
22930;BME280;11630;42.660;23.292;2024-02-14T05:01:31;68237.94;;;6.35;100.00
22930;BME280;11630;42.660;23.292;2024-02-14T05:04:00;68259.59;;;6.50;100.00
22930;BME280;11630;42.660;23.292;2024-02-14T05:06:31;68245.53;;;6.42;100.00
22930;BME280;11630;42.660;23.292;2024-02-14T05:09:04;68238.20;;;6.34;100.00
22930;BME280;11630;42.660;23.292;2024-02-14T05:11:34;68244.44;;;6.41;100.00
22930;BME280;11630;42.660;23.292;2024-02-14T05:14:05;68232.51;;;6.30;100.00
22930;BME280;11630;42.660;23.292;2024-02-14T05:16:36;68227.92;;;6.27;100.00
22930;BME280;11630;42.660;23.292;2024-02-14T05:19:06;68237.64;;;6.31;100.00
22930;BME280;11630;42.660;23.292;2024-02-14T05:21:38;68240.63;;;6.35;100.00
22930;BME280;11630;42.660;23.292;2024-02-14T05:24:08;68252.53;;;6.44;100.00
22930;BME280;11630;42.660;23.292;2024-02-14T05:26:39;68255.02;;;6.52;100.00
22930;BME280;11630;42.660;23.292;2024-02-14T05:29:11;68255.55;;;6.50;100.00
22930;BME280;11630;42.660;23.292;2024-02-14T05:31:46;68256.33;;;6.47;100.00
22930;BME280;11630;42.660;23.292;2024-02-14T05:34:19;68234.14;;;6.29;100.00
22930;BME280;11630;42.660;23.292;2024-02-14T05:36:51;68255.80;;;6.49;100.00
22930;BME280;11630;42.660;23.292;2024-02-14T05:39:21;68252.02;;;6.48;100.00
22930;BME280;11630;42.660;23.292;2024-02-14T05:41:52;68256.38;;;6.52;100.00
22930;BME280;11630;42.660;23.292;2024-02-14T05:44:23;68247.96;;;6.43;100.00
22930;BME280;11630;42.660;23.292;2024-02-14T05:46:54;68260.95;;;6.55;100.00
22930;BME280;11630;42.660;23.292;2024-02-14T05:49:25;68231.16;;;6.30;100.00
22930;BME280;11630;42.660;23.292;2024-02-14T05:51:56;68239.30;;;6.38;100.00
22930;BME280;11630;42.660;23.292;2024-02-14T05:54:27;68244.94;;;6.34;100.00
22930;BME280;11630;42.660;23.292;2024-02-14T05:56:58;68237.64;;;6.31;100.00
22930;BME280;11630;42.660;23.292;2024-02-14T05:59:30;68252.02;;;6.48;100.00
22930;BME280;11630;42.660;23.292;2024-02-14T06:02:01;68263.11;;;6.52;100.00
22930;BME280;11630;42.660;23.292;2024-02-14T06:04:32;68243.33;;;6.35;100.00
22930;BME280;11630;42.660;23.292;2024-02-14T06:07:03;68244.42;;;6.36;100.00
22930;BME280;11630;42.660;23.292;2024-02-14T06:09:38;68235.19;;;6.25;100.00
22930;BME280;11630;42.660;23.292;2024-02-14T06:12:08;68255.81;;;6.52;100.00
22930;BME280;11630;42.660;23.292;2024-02-14T06:14:40;68262.83;;;6.53;100.00
22930;BME280;11630;42.660;23.292;2024-02-14T06:17:11;68280.74;;;6.72;100.00
22930;BME280;11630;42.660;23.292;2024-02-14T06:19:42;68294.56;;;6.86;100.00
22930;BME280;11630;42.660;23.292;2024-02-14T06:22:13;68265.00;;;6.55;100.00
22930;BME280;11630;42.660;23.292;2024-02-14T06:24:45;68254.16;;;6.45;100.00
22930;BME280;11630;42.660;23.292;2024-02-14T06:27:19;68266.09;;;6.56;100.00
22930;BME280;11630;42.660;23.292;2024-02-14T06:29:49;68258.77;;;6.51;100.00
22930;BME280;11630;42.660;23.292;2024-02-14T06:32:19;68244.94;;;6.34;100.00
22930;BME280;11630;42.660;23.292;2024-02-14T06:34:54;68241.71;;;6.34;100.00
22930;BME280;11630;42.660;23.292;2024-02-14T06:37:24;68224.92;;;6.23;100.00
22930;BME280;11630;42.660;23.292;2024-02-14T06:39:55;68232.51;;;6.30;100.00
22930;BME280;11630;42.660;23.292;2024-02-14T06:42:26;68252.55;;;6.46;100.00
22930;BME280;11630;42.660;23.292;2024-02-14T06:44:57;68237.90;;;6.30;100.00
22930;BME280;11630;42.660;23.292;2024-02-14T06:47:29;68248.46;;;6.36;100.00
22930;BME280;11630;42.660;23.292;2024-02-14T06:50:00;68241.46;;;6.37;100.00
22930;BME280;11630;42.660;23.292;2024-02-14T06:52:31;68263.39;;;6.56;100.00
22930;BME280;11630;42.660;23.292;2024-02-14T06:55:02;68253.89;;;6.44;100.00
22930;BME280;11630;42.660;23.292;2024-02-14T06:57:33;68237.64;;;6.31;100.00
22930;BME280;11630;42.660;23.292;2024-02-14T07:00:04;68257.42;;;6.51;100.00
22930;BME280;11630;42.660;23.292;2024-02-14T07:02:44;68264.21;;;6.56;100.00
22930;BME280;11630;42.660;23.292;2024-02-14T07:05:14;68260.41;;;6.52;100.00
22930;BME280;11630;42.660;23.292;2024-02-14T07:07:44;68231.70;;;6.28;100.00
22930;BME280;11630;42.660;23.292;2024-02-14T07:10:15;68234.41;;;6.31;100.00
22930;BME280;11630;42.660;23.292;2024-02-14T07:12:46;68230.59;;;6.22;100.00
22930;BME280;11630;42.660;23.292;2024-02-14T07:15:18;68240.92;;;6.39;100.00
22930;BME280;11630;42.660;23.292;2024-02-14T07:17:49;68245.50;;;6.37;100.00
22930;BME280;11630;42.660;23.292;2024-02-14T07:20:19;68238.98;;;6.31;100.00
22930;BME280;11630;42.660;23.292;2024-02-14T07:22:50;68240.65;;;6.38;100.00
22930;BME280;11630;42.660;23.292;2024-02-14T07:25:21;68233.59;;;6.31;100.00
22930;BME280;11630;42.660;23.292;2024-02-14T07:27:56;68239.55;;;6.34;100.00
22930;BME280;11630;42.660;23.292;2024-02-14T07:30:23;68226.55;;;6.22;100.00
22930;BME280;11630;42.660;23.292;2024-02-14T07:32:54;68236.02;;;6.30;100.00
22930;BME280;11630;42.660;23.292;2024-02-14T07:35:24;68236.84;;;6.32;100.00
22930;BME280;11630;42.660;23.292;2024-02-14T07:37:55;68234.40;;;6.28;100.00
22930;BME280;11630;42.660;23.292;2024-02-14T07:40:26;68250.92;;;6.42;100.00
22930;BME280;11630;42.660;23.292;2024-02-14T07:42:56;68225.20;;;6.22;100.00
22930;BME280;11630;42.660;23.292;2024-02-14T07:45:27;68233.33;;;6.30;100.00
22930;BME280;11630;42.660;23.292;2024-02-14T07:47:59;68229.25;;;6.22;100.00
22930;BME280;11630;42.660;23.292;2024-02-14T07:50:34;68253.09;;;6.44;100.00
22930;BME280;11630;42.660;23.292;2024-02-14T07:53:04;68274.50;;;6.65;100.00
22930;BME280;11630;42.660;23.292;2024-02-14T07:55:35;68229.78;;;6.23;100.00
22930;BME280;11630;42.660;23.292;2024-02-14T07:58:04;68253.09;;;6.44;100.00
22930;BME280;11630;42.660;23.292;2024-02-14T08:00:36;68264.21;;;6.56;100.00
22930;BME280;11630;42.660;23.292;2024-02-14T08:03:07;68230.06;;;6.27;100.00
22930;BME280;11630;42.660;23.292;2024-02-14T08:05:38;68249.84;;;6.44;100.00
22930;BME280;11630;42.660;23.292;2024-02-14T08:08:09;68236.28;;;6.29;100.00
22930;BME280;11630;42.660;23.292;2024-02-14T08:10:40;68243.07;;;6.36;100.00
22930;BME280;11630;42.660;23.292;2024-02-14T08:13:11;68244.96;;;6.39;100.00
22930;BME280;11630;42.660;23.292;2024-02-14T08:15:42;68249.84;;;6.44;100.00
22930;BME280;11630;42.660;23.292;2024-02-14T08:18:14;68248.48;;;6.41;100.00
22930;BME280;11630;42.660;23.292;2024-02-14T08:20:45;68225.47;;;6.21;100.00
22930;BME280;11630;42.660;23.292;2024-02-14T08:23:16;68225.98;;;6.19;100.00
22930;BME280;11630;42.660;23.292;2024-02-14T08:25:47;68224.95;;;6.26;100.00
22930;BME280;11630;42.660;23.292;2024-02-14T08:28:18;68231.44;;;6.29;100.00
22930;BME280;11630;42.660;23.292;2024-02-14T08:30:48;68238.46;;;6.33;100.00
22930;BME280;11630;42.660;23.292;2024-02-14T08:33:19;68238.46;;;6.33;100.00
22930;BME280;11630;42.660;23.292;2024-02-14T08:35:50;68256.59;;;6.46;100.00
22930;BME280;11630;42.660;23.292;2024-02-14T08:38:21;68252.81;;;6.45;100.00
22930;BME280;11630;42.660;23.292;2024-02-14T08:40:52;68243.61;;;6.39;100.00
22930;BME280;11630;42.660;23.292;2024-02-14T08:43:23;68229.25;;;6.22;100.00
22930;BME280;11630;42.660;23.292;2024-02-14T08:45:56;68223.28;;;6.17;100.00
22930;BME280;11630;42.660;23.292;2024-02-14T08:48:27;68220.58;;;6.14;100.00
22930;BME280;11630;42.660;23.292;2024-02-14T08:50:58;68209.50;;;6.10;100.00
22930;BME280;11630;42.660;23.292;2024-02-14T08:53:29;68203.00;;;6.05;100.00
22930;BME280;11630;42.660;23.292;2024-02-14T08:56:00;68207.30;;;6.04;100.00
22930;BME280;11630;42.660;23.292;2024-02-14T08:58:31;68180.52;;;5.83;100.00
22930;BME280;11630;42.660;23.292;2024-02-14T09:01:04;68199.19;;;5.96;100.00
22930;BME280;11630;42.660;23.292;2024-02-14T09:03:35;68220.03;;;6.16;100.00
22930;BME280;11630;42.660;23.292;2024-02-14T09:06:06;68202.67;;;5.96;100.00
22930;BME280;11630;42.660;23.292;2024-02-14T09:08:37;68191.06;;;5.91;100.00
22930;BME280;11630;42.660;23.292;2024-02-14T09:11:08;68190.26;;;5.89;100.00
22930;BME280;11630;42.660;23.292;2024-02-14T09:13:38;68185.90;;;5.83;100.00
22930;BME280;11630;42.660;23.292;2024-02-14T09:16:12;68182.42;;;5.86;100.00
22930;BME280;11630;42.660;23.292;2024-02-14T09:18:44;68213.53;;;6.10;100.00
22930;BME280;11630;42.660;23.292;2024-02-14T09:21:13;68200.78;;;5.93;100.00
22930;BME280;11630;42.660;23.292;2024-02-14T09:23:46;68200.80;;;5.98;100.00
22930;BME280;11630;42.660;23.292;2024-02-14T09:26:15;68193.22;;;5.91;100.00
22930;BME280;11630;42.660;23.292;2024-02-14T09:28:46;68206.51;;;6.04;100.00
22930;BME280;11630;42.660;23.292;2024-02-14T09:31:20;68187.81;;;5.86;100.00
22930;BME280;11630;42.660;23.292;2024-02-14T09:33:50;68169.66;;;5.73;100.00
22930;BME280;11630;42.660;23.292;2024-02-14T09:36:21;68205.41;;;6.01;100.00
22930;BME280;11630;42.660;23.292;2024-02-14T09:38:55;68182.38;;;5.81;100.00
22930;BME280;11630;42.660;23.292;2024-02-14T09:44:01;68208.38;;;6.02;100.00
22930;BME280;11630;42.660;23.292;2024-02-14T09:46:32;68189.70;;;5.89;100.00
22930;BME280;11630;42.660;23.292;2024-02-14T09:49:05;68205.13;;;6.02;100.00
22930;BME280;11630;42.660;23.292;2024-02-14T09:51:37;68192.67;;;5.90;100.00
22930;BME280;11630;42.660;23.292;2024-02-14T09:54:09;68179.69;;;5.81;100.00
22930;BME280;11630;42.660;23.292;2024-02-14T09:56:45;68192.96;;;5.92;100.00
22930;BME280;11630;42.660;23.292;2024-02-14T09:59:14;68188.36;;;5.89;100.00
22930;BME280;11630;42.660;23.292;2024-02-14T10:01:46;68185.67;;;5.91;100.00
22930;BME280;11630;42.660;23.292;2024-02-14T10:04:20;68198.34;;;5.92;100.00
22930;BME280;11630;42.660;23.292;2024-02-14T10:06:51;68193.48;;;5.90;100.00
22930;BME280;11630;42.660;23.292;2024-02-14T10:09:25;68208.95;;;6.08;100.00
22930;BME280;11630;42.660;23.292;2024-02-14T10:11:56;68221.95;;;6.19;100.00
22930;BME280;11630;42.660;23.292;2024-02-14T10:14:27;68228.70;;;6.22;100.00
22930;BME280;11630;42.660;23.292;2024-02-14T10:16:58;68221.42;;;6.21;100.00
22930;BME280;11630;42.660;23.292;2024-02-14T10:19:29;68240.63;;;6.35;100.00
22930;BME280;11630;42.660;23.292;2024-02-14T10:22:00;68217.33;;;6.14;100.00
22930;BME280;11630;42.660;23.292;2024-02-14T10:24:34;68238.46;;;6.33;100.00
22930;BME280;11630;42.660;23.292;2024-02-14T10:27:06;68249.58;;;6.45;100.00
22930;BME280;11630;42.660;23.292;2024-02-14T10:29:37;68234.14;;;6.29;100.00
22930;BME280;11630;42.660;23.292;2024-02-14T10:32:08;68235.48;;;6.29;100.00
22930;BME280;11630;42.660;23.292;2024-02-14T10:34:40;68236.85;;;6.34;100.00
22930;BME280;11630;42.660;23.292;2024-02-14T10:37:11;68256.08;;;6.51;100.00
22930;BME280;11630;42.660;23.292;2024-02-14T10:39:49;68248.75;;;6.43;100.00
22930;BME280;11630;42.660;23.292;2024-02-14T10:42:16;68259.06;;;6.52;100.00
22930;BME280;11630;42.660;23.292;2024-02-14T10:44:46;68267.45;;;6.61;100.00
22930;BME280;11630;42.660;23.292;2024-02-14T10:47:19;68270.45;;;6.63;100.00
22930;BME280;11630;42.660;23.292;2024-02-14T10:49:50;68274.52;;;6.68;100.00
22930;BME280;11630;42.660;23.292;2024-02-14T10:52:20;68268.02;;;6.62;100.00
22930;BME280;11630;42.660;23.292;2024-02-14T10:54:55;68276.39;;;6.68;100.00
22930;BME280;11630;42.660;23.292;2024-02-14T10:57:25;68254.20;;;6.50;100.00
22930;BME280;11630;42.660;23.292;2024-02-14T10:59:57;68253.09;;;6.47;100.00
22930;BME280;11630;42.660;23.292;2024-02-14T11:02:28;68265.56;;;6.58;100.00
22930;BME280;11630;42.660;23.292;2024-02-14T11:05:00;68260.67;;;6.51;100.00
22930;BME280;11630;42.660;23.292;2024-02-14T11:07:34;68275.88;;;6.70;100.00
22930;BME280;11630;42.660;23.292;2024-02-14T11:10:06;68265.83;;;6.57;100.00
22930;BME280;11630;42.660;23.292;2024-02-14T11:12:37;68254.20;;;6.50;100.00
22930;BME280;11630;42.660;23.292;2024-02-14T11:15:21;68272.08;;;6.67;100.00
22930;BME280;11630;42.660;23.292;2024-02-14T11:18:03;68270.41;;;6.58;100.00
22930;BME280;11630;42.660;23.292;2024-02-14T11:20:32;68279.13;;;6.71;100.00
22930;BME280;11630;42.660;23.292;2024-02-14T11:23:04;68270.98;;;6.63;100.00
22930;BME280;11630;42.660;23.292;2024-02-14T11:25:36;68278.83;;;6.69;100.00
22930;BME280;11630;42.660;23.292;2024-02-14T11:28:18;68269.91;;;6.65;100.00
22930;BME280;11630;42.660;23.292;2024-02-14T11:31:06;68256.63;;;6.51;100.00
22930;BME280;11630;42.660;23.292;2024-02-14T11:33:38;68254.47;;;6.52;100.00
22930;BME280;11630;42.660;23.292;2024-02-14T11:36:12;68269.63;;;6.63;100.00
22930;BME280;11630;42.660;23.292;2024-02-14T11:38:46;68260.67;;;6.51;100.00
22930;BME280;11630;42.660;23.292;2024-02-14T11:41:17;68249.31;;;6.43;100.00
22930;BME280;11630;42.660;23.292;2024-02-14T11:43:53;68239.56;;;6.37;100.00
22930;BME280;11630;42.660;23.292;2024-02-14T11:46:26;68248.21;;;6.40;100.00
22930;BME280;11630;42.660;23.292;2024-02-14T11:48:59;68229.79;;;6.25;100.00
22930;BME280;11630;42.660;23.292;2024-02-14T11:51:34;68215.45;;;6.13;100.00
22930;BME280;11630;42.660;23.292;2024-02-14T11:54:07;68216.80;;;6.13;100.00
22930;BME280;11630;42.660;23.292;2024-02-14T11:56:39;68224.13;;;6.24;100.00
22930;BME280;11630;42.660;23.292;2024-02-14T11:59:08;68257.95;;;6.49;100.00
22930;BME280;11630;42.660;23.292;2024-02-14T12:01:40;68269.07;;;6.60;100.00
22930;BME280;11630;42.660;23.292;2024-02-14T12:04:11;68271.24;;;6.62;100.00
22930;BME280;11630;42.660;23.292;2024-02-14T12:06:42;68273.95;;;6.65;100.00
22930;BME280;11630;42.660;23.292;2024-02-14T12:09:12;68278.25;;;6.64;100.00
22930;BME280;11630;42.660;23.292;2024-02-14T12:11:42;68258.23;;;6.48;100.00
22930;BME280;11630;42.660;23.292;2024-02-14T12:14:13;68245.25;;;6.41;100.00
22930;BME280;11630;42.660;23.292;2024-02-14T12:16:45;68243.33;;;6.35;100.00
22930;BME280;11630;42.660;23.292;2024-02-14T12:19:16;68250.39;;;6.44;100.00
22930;BME280;11630;42.660;23.292;2024-02-14T12:21:45;68250.94;;;6.47;100.00
22930;BME280;11630;42.660;23.292;2024-02-14T12:24:17;68259.86;;;6.52;100.00
22930;BME280;11630;42.660;23.292;2024-02-14T12:26:48;68249.85;;;6.46;100.00
22930;BME280;11630;42.660;23.292;2024-02-14T12:29:23;68247.70;;;6.44;100.00
22930;BME280;11630;42.660;23.292;2024-02-14T12:32:07;68253.89;;;6.46;100.00
22930;BME280;11630;42.660;23.292;2024-02-14T12:34:39;68254.45;;;6.49;100.00
22930;BME280;11630;42.660;23.292;2024-02-14T12:37:12;68227.62;;;6.23;100.00
22930;BME280;11630;42.660;23.292;2024-02-14T12:39:43;68247.14;;;6.41;100.00
22930;BME280;11630;42.660;23.292;2024-02-14T12:42:14;68253.11;;;6.49;100.00
22930;BME280;11630;42.660;23.292;2024-02-14T12:44:44;68257.42;;;6.51;100.00
22930;BME280;11630;42.660;23.292;2024-02-14T12:47:15;68254.72;;;6.48;100.00
22930;BME280;11630;42.660;23.292;2024-02-14T12:49:46;68262.56;;;6.54;100.00
22930;BME280;11630;42.660;23.292;2024-02-14T12:52:17;68268.55;;;6.62;100.00
22930;BME280;11630;42.660;23.292;2024-02-14T12:54:49;68273.98;;;6.67;100.00
22930;BME280;11630;42.660;23.292;2024-02-14T12:57:19;68283.20;;;6.78;100.00
22930;BME280;11630;42.660;23.292;2024-02-14T12:59:51;68288.03;;;6.75;100.00
22930;BME280;11630;42.660;23.292;2024-02-14T13:02:22;68295.66;;;6.89;100.00
22930;BME280;11630;42.660;23.292;2024-02-14T13:04:53;68319.21;;;7.05;100.00
22930;BME280;11630;42.660;23.292;2024-02-14T13:07:25;68315.97;;;7.02;100.00
22930;BME280;11630;42.660;23.292;2024-02-14T13:09:55;68304.59;;;6.94;100.00
22930;BME280;11630;42.660;23.292;2024-02-14T13:12:27;68303.23;;;6.91;100.00
22930;BME280;11630;42.660;23.292;2024-02-14T13:15:02;68297.02;;;6.89;100.00